Edenville, Michigan
Current Conditions -  °F | °C
As of 11:34 AM on Saturday 22 Nov 2014 (Local Time) from KIKW Reporting Station
Haze Haze  
Wind Chill: 29°   Ceiling: 700
Heat Index: 36°   Visibility: 5mi
Dew Point: 35°   Wind: 9mph
Humidity: 96%   Direction: 220°SW
Pressure: 29.94"   Gusts: 16mph
Location:  43.8°N, 84.38°W
Report Text: KIKW 221634Z AUTO 22008G14KT 5SM BR OVC007 02/02 A2994 RMK AO2 T00220016
Loading
Personal Weather Stations






























Interactive Weather Map New forecast layout! Learn more

10-Day Weather Forecast

Advertisements
Track Severe Weather on mobile